Historique des mesures à Cassis (13260), France
Quotidien Résumé Fevrier 21, 2018 Unités:  Métrique    US   Métrique/US
« Précédent (Jour)
Suivant (Jour) »
Quotidien Hebdomadaire Mensuel Annuel Période au choix
  Maximum: Minimum: Moyenne:
Température: TemperatureC °C 3.9 °C 6.2 °C
Point de rosée: DewpointC °C -3.7 °C -0.7 °C
Humidité: Humidity % 50 % 59 %
Vitesse du vent: 0 km/h 0 km/h 8.9 km/h
Rafales: 0 km/h - -
Vent:- - West
Pression: PressurehPa hPa 1001.9 hPa -
Précipitations: 6.6 mm    
Historical Graphs
 
 
Mesures pour : Fevrier 21, 2018
Heure Temperature Point de rosée Pression Vent Vitesse du vent Rafales Humidité Pluie (par heure) Conditions
TemperatureC °C DewpointC °C PressurehPa hPa Calm     Humidity % HourlyPrecipMM mm SoftwareType W/m2
00:12 6.5 °C -2.7 °C 1003.9 hPa Calm     52 % 0.0 mm open2300-1.11 W/m2
01:12 5.9 °C -3.7 °C 1003.6 hPa North 6.4 km/h 8 km/h 50 % 0.0 mm open2300-1.11 W/m2
02:12 6.4 °C -3.2 °C 1003.6 hPa NNE 5.1 km/h 6.9 km/h 50 % 0.0 mm open2300-1.11 W/m2
03:12 6.4 °C -3.0 °C 1002.9 hPa Calm   4.7 km/h 51 % 0.0 mm open2300-1.11 W/m2
04:12 5.6 °C -3.3 °C 1001.9 hPa NNW 16.9 km/h 18.7 km/h 53 % 0.0 mm open2300-1.11 W/m2
05:12 5.3 °C -3.3 °C 1001.9 hPa WNW 3.4 km/h 3.4 km/h 54 % 0.0 mm open2300-1.11 W/m2
06:12 5.8 °C -2.6 °C 1001.9 hPa WNW 4.2 km/h 4.2 km/h 55 % 0.0 mm open2300-1.11 W/m2
07:12 6.1 °C 0.2 °C 1002.3 hPa Calm     66 % 0.0 mm open2300-1.11 W/m2
08:12 4.1 °C 0.2 °C 1002.6 hPa North 4.7 km/h 4.7 km/h 76 % 2.0 mm open2300-1.11 W/m2
09:12 3.9 °C 0.6 °C 1003.3 hPa Calm   5.1 km/h 79 % 2.5 mm open2300-1.11 W/m2
10:12 4.6 °C 1.4 °C 1003.6 hPa NW 6.4 km/h 11.6 km/h 80 % 2.0 mm open2300-1.11 W/m2
11:12 5.2 °C 2.0 °C 1003.9 hPa NNW 12.2 km/h 12.2 km/h 80 % 0.0 mm open2300-1.11 W/m2
12:12 7.1 °C 3.3 °C 1003.9 hPa West 22.5 km/h 22.5 km/h 77 % 0.0 mm open2300-1.11 W/m2
13:12 8.0 °C 3.4 °C 1003.6 hPa NW 15.6 km/h 37 km/h 73 % 0.0 mm open2300-1.11 W/m2
14:12 8.9 °C 2.9 °C 1002.9 hPa WNW 37 km/h 37 km/h 66 % 0.0 mm open2300-1.11 W/m2
15:12 9.3 °C 1.2 °C 1002.6 hPa West 16.3 km/h 34.8 km/h 57 % 0.0 mm open2300-1.11 W/m2
16:12 9.8 °C 0.7 °C 1002.6 hPa NNW 11.6 km/h 19.6 km/h 53 % 0.0 mm open2300-1.11 W/m2
17:12 9.8 °C 0.4 °C 1002.3 hPa NW 5.6 km/h 9.8 km/h 52 % 0.0 mm open2300-1.11 W/m2
18:12 8.2 °C -0.6 °C 1002.6 hPa Calm   10.3 km/h 54 % 0.0 mm open2300-1.11 W/m2
19:12 6.7 °C -1.7 °C 1002.6 hPa NNW 5.1 km/h 10.3 km/h 55 % 0.0 mm open2300-1.11 W/m2
20:12 5.6 °C -2.1 °C 1002.3 hPa West 12.7 km/h 20.3 km/h 58 % 0.0 mm open2300-1.11 W/m2
21:12 5.3 °C -2.3 °C 1002.6 hPa WNW 17.4 km/h 17.4 km/h 58 % 0.0 mm open2300-1.11 W/m2
22:12 4.8 °C -2.1 °C 1002.3 hPa NW 11.6 km/h 12.2 km/h 61 % 0.0 mm open2300-1.11 W/m2
23:12 4.7 °C -2.2 °C 1001.9 hPa NNW 8 km/h 9.8 km/h 61 % 0.0 mm open2300-1.11 W/m2
Observations météo à CASSIS
WU-History script by Weather Underground - 1 mb